Time;durP1;ratioP1;P1;durP2;ratioP2;P2;SDS_P1;SDS_P2;PMS_P1;PMS_P2;Temp;Humidity;BMP_temperature;BMP_pressure;BME280_temperature;BME280_humidity;BME280_pressure;Samples;Min_cycle;Max_cycle;Signal;HPM_P1;HPM_P2
2021/11/15 00:02:22;;;;;;;42.05;21.63;;;10.00;81.40;;;;;;4981048;28;92444;-70
2021/11/15 00:04:50;;;;;;;37.97;19.88;;;10.00;81.40;;;;;;4979998;28;92533;-71
2021/11/15 00:07:17;;;;;;;43.28;21.30;;;10.00;81.20;;;;;;4979371;28;110233;-71
2021/11/15 00:09:44;;;;;;;38.80;18.60;;;10.00;81.20;;;;;;4981098;28;95200;-71
2021/11/15 00:12:12;;;;;;;31.77;17.67;;;10.00;80.80;;;;;;4979842;28;92494;-70
2021/11/15 00:14:39;;;;;;;34.35;17.40;;;10.00;80.60;;;;;;4980051;28;92520;-70
2021/11/15 00:17:07;;;;;;;33.10;17.55;;;9.90;80.50;;;;;;4979997;28;93093;-71
2021/11/15 00:19:34;;;;;;;31.30;16.05;;;10.00;80.20;;;;;;4980957;28;92848;-70
2021/11/15 00:22:03;;;;;;;31.80;16.80;;;9.90;80.10;;;;;;4981265;28;92446;-71
2021/11/15 00:24:31;;;;;;;32.13;16.75;;;9.90;80.10;;;;;;4964100;28;91663;-71
2021/11/15 00:26:59;;;;;;;32.50;16.13;;;9.90;79.60;;;;;;4981101;28;92909;-70
2021/11/15 00:29:26;;;;;;;29.75;16.42;;;9.90;79.70;;;;;;4979347;28;95065;-70
2021/11/15 00:31:53;;;;;;;31.63;15.93;;;9.90;79.60;;;;;;4979945;28;94827;-70
2021/11/15 00:34:21;;;;;;;29.23;15.68;;;9.90;79.50;;;;;;4981073;28;92459;-71
2021/11/15 00:36:48;;;;;;;30.20;15.80;;;9.90;79.50;;;;;;4979719;28;94184;-71
2021/11/15 00:39:15;;;;;;;30.42;15.63;;;9.90;79.10;;;;;;4980812;28;92924;-71
2021/11/15 00:41:44;;;;;;;28.63;14.82;;;9.90;78.70;;;;;;4979601;28;92507;-71
2021/11/15 00:44:11;;;;;;;28.27;14.98;;;9.90;78.70;;;;;;4980901;28;92615;-71
2021/11/15 00:46:39;;;;;;;29.20;14.70;;;9.80;78.20;;;;;;4980338;28;93063;-71
2021/11/15 00:49:06;;;;;;;28.83;14.77;;;9.80;78.40;;;;;;4981239;28;92764;-71
2021/11/15 00:51:33;;;;;;;26.95;14.63;;;9.80;78.40;;;;;;4978973;28;104736;-71
2021/11/15 00:54:00;;;;;;;28.48;14.75;;;9.80;78.40;;;;;;4979592;28;92520;-71
2021/11/15 00:56:27;;;;;;;27.88;14.63;;;9.80;78.60;;;;;;4979191;28;95300;-71
2021/11/15 00:58:54;;;;;;;29.48;15.40;;;9.80;78.60;;;;;;4962831;28;96428;-71
2021/11/15 01:01:22;;;;;;;28.80;14.77;;;9.80;78.10;;;;;;4978934;28;92521;-71
2021/11/15 01:03:49;;;;;;;25.08;13.63;;;9.80;78.30;;;;;;4977200;28;92474;-71
2021/11/15 01:06:16;;;;;;;26.48;13.38;;;9.80;78.30;;;;;;4977514;28;93125;-71
2021/11/15 01:08:43;;;;;;;25.38;14.43;;;9.80;78.10;;;;;;4975763;28;97809;-71
2021/11/15 01:11:10;;;;;;;28.73;15.63;;;9.70;78.30;;;;;;4977361;28;92425;-71
2021/11/15 01:13:38;;;;;;;27.98;14.93;;;9.70;78.30;;;;;;4977692;28;91735;-71
2021/11/15 01:16:07;;;;;;;28.35;14.93;;;9.70;78.20;;;;;;4976058;28;94887;-71
2021/11/15 01:18:36;;;;;;;29.58;15.20;;;9.60;78.50;;;;;;4976824;28;92743;-71
2021/11/15 01:21:02;;;;;;;29.60;16.00;;;9.60;78.50;;;;;;4976091;28;95003;-71
2021/11/15 01:23:30;;;;;;;29.85;15.27;;;9.60;78.20;;;;;;4959288;28;92518;-70
2021/11/15 01:25:57;;;;;;;27.85;15.07;;;9.60;78.20;;;;;;4959505;28;95263;-70
2021/11/15 01:28:24;;;;;;;28.00;14.75;;;9.50;78.10;;;;;;4975405;28;94200;-71
2021/11/15 01:30:51;;;;;;;28.92;16.30;;;9.50;77.90;;;;;;4977104;28;92533;-70
2021/11/15 01:33:18;;;;;;;32.58;17.15;;;9.50;77.80;;;;;;4975597;28;92539;-71
2021/11/15 01:35:45;;;;;;;25.55;15.18;;;9.50;77.70;;;;;;4976637;28;92390;-71
2021/11/15 01:38:12;;;;;;;31.77;15.82;;;9.50;77.70;;;;;;4977198;28;92945;-71
2021/11/15 01:40:39;;;;;;;27.80;15.75;;;9.50;77.80;;;;;;4975236;28;92535;-71
2021/11/15 01:43:06;;;;;;;30.52;15.98;;;9.50;77.70;;;;;;4976883;28;92477;-71
2021/11/15 01:45:36;;;;;;;31.73;15.73;;;9.40;77.40;;;;;;4975049;28;95338;-71
2021/11/15 01:48:05;;;;;;;29.83;15.38;;;9.40;77.90;;;;;;4976451;28;95193;-70
2021/11/15 01:50:34;;;;;;;31.77;15.75;;;9.40;78.00;;;;;;4974961;28;93013;-71
2021/11/15 01:53:03;;;;;;;34.30;16.55;;;9.40;78.30;;;;;;4976434;28;92477;-74
2021/11/15 01:55:32;;;;;;;33.53;15.35;;;9.40;78.60;;;;;;4975201;28;92887;-75
2021/11/15 01:58:03;;;;;;;39.40;17.67;;;9.40;78.70;;;;;;4975252;28;92925;-75
2021/11/15 02:00:36;;;;;;;40.88;20.10;;;9.40;78.90;;;;;;4976504;28;92624;-74
2021/11/15 02:03:04;;;;;;;43.77;19.50;;;9.40;78.80;;;;;;4977071;28;91677;-75
2021/11/15 02:05:31;;;;;;;43.78;19.33;;;9.30;79.00;;;;;;4976315;28;95052;-75
2021/11/15 02:07:58;;;;;;;42.90;18.77;;;9.30;79.20;;;;;;4976321;28;92781;-75
2021/11/15 02:10:25;;;;;;;42.05;18.70;;;9.30;79.40;;;;;;4975090;28;94804;-75
2021/11/15 02:12:53;;;;;;;48.40;20.67;;;9.30;79.20;;;;;;4974972;28;92526;-75
2021/11/15 02:15:20;;;;;;;43.80;20.23;;;9.30;79.50;;;;;;4975083;28;93190;-74
2021/11/15 02:17:48;;;;;;;45.05;20.20;;;9.30;79.30;;;;;;4975622;28;92780;-74
2021/11/15 02:20:24;;;;;;;38.88;19.05;;;9.30;79.30;;;;;;4976341;28;92569;-74
2021/11/15 02:22:53;;;;;;;41.17;18.67;;;9.30;79.50;;;;;;4974517;28;92930;-74
2021/11/15 02:25:24;;;;;;;40.60;18.05;;;9.20;79.30;;;;;;4975842;28;104123;-74
2021/11/15 02:27:51;;;;;;;42.13;18.52;;;9.20;79.40;;;;;;4976353;28;92732;-74
2021/11/15 02:30:25;;;;;;;43.75;18.85;;;9.20;79.50;;;;;;4974585;28;92877;-75
2021/11/15 02:32:52;;;;;;;42.67;19.63;;;9.20;79.50;;;;;;4976159;28;92422;-74
2021/11/15 02:35:21;;;;;;;49.15;20.60;;;9.20;79.70;;;;;;4973525;28;95581;-75
2021/11/15 02:37:49;;;;;;;40.83;17.92;;;9.20;79.60;;;;;;4975574;28;95273;-74
2021/11/15 02:40:20;;;;;;;41.28;18.90;;;9.10;79.30;;;;;;4975947;28;92963;-75
2021/11/15 02:42:49;;;;;;;36.83;17.30;;;9.10;79.30;;;;;;4974673;28;93019;-74
2021/11/15 02:45:19;;;;;;;37.83;17.13;;;9.10;79.70;;;;;;4975862;28;92981;-75
2021/11/15 02:47:47;;;;;;;36.88;17.45;;;9.10;79.20;;;;;;4975379;28;92886;-74
2021/11/15 02:50:20;;;;;;;34.67;16.98;;;9.10;79.20;;;;;;4975615;28;92482;-74
2021/11/15 02:52:53;;;;;;;33.80;15.10;;;9.10;79.20;;;;;;4976238;28;92180;-75
2021/11/15 02:55:21;;;;;;;27.98;13.88;;;9.00;79.30;;;;;;4975855;28;92493;-74
2021/11/15 02:57:49;;;;;;;31.85;14.95;;;9.00;80.00;;;;;;4974038;28;94048;-75
2021/11/15 03:00:20;;;;;;;32.45;17.08;;;9.00;78.80;;;;;;4974632;28;94904;-74
2021/11/15 03:02:48;;;;;;;32.22;13.82;;;8.90;78.80;;;;;;4975593;28;92447;-74
2021/11/15 03:05:15;;;;;;;35.10;17.42;;;8.90;79.10;;;;;;4977045;28;93281;-74
2021/11/15 03:07:46;;;;;;;35.33;16.40;;;8.90;79.00;;;;;;4993483;28;94116;-74
2021/11/15 03:10:14;;;;;;;41.00;17.95;;;8.80;78.90;;;;;;4994926;28;92767;-74
2021/11/15 03:12:41;;;;;;;40.08;18.27;;;8.80;79.40;;;;;;4995281;28;92448;-75
2021/11/15 03:15:09;;;;;;;41.50;17.42;;;8.80;79.20;;;;;;4993931;28;94448;-74
2021/11/15 03:17:40;;;;;;;46.17;18.40;;;8.80;79.10;;;;;;4995276;28;93013;-74
2021/11/15 03:20:08;;;;;;;43.30;19.92;;;8.70;79.20;;;;;;4995270;28;92375;-74
2021/11/15 03:22:35;;;;;;;39.60;18.15;;;8.80;79.20;;;;;;4993783;28;95904;-74
2021/11/15 03:25:03;;;;;;;42.45;17.58;;;8.70;79.30;;;;;;4993321;28;94874;-74
2021/11/15 03:27:35;;;;;;;39.45;18.20;;;8.70;79.30;;;;;;4994915;28;95185;-74
2021/11/15 03:30:05;;;;;;;45.38;19.83;;;8.70;79.40;;;;;;4995260;28;92434;-74
2021/11/15 03:32:32;;;;;;;42.08;17.90;;;8.70;79.20;;;;;;4993815;28;92531;-74
2021/11/15 03:35:02;;;;;;;41.05;18.80;;;8.70;79.40;;;;;;4994921;28;94970;-74
2021/11/15 03:37:29;;;;;;;42.72;18.05;;;8.70;80.00;;;;;;4995273;28;92947;-74
2021/11/15 03:39:56;;;;;;;44.40;18.58;;;8.60;79.30;;;;;;4994975;28;92343;-75
2021/11/15 03:42:25;;;;;;;46.05;19.52;;;8.60;79.60;;;;;;4993950;28;100555;-75
2021/11/15 03:44:52;;;;;;;53.00;19.65;;;8.60;79.80;;;;;;4994805;28;93104;-74
2021/11/15 03:47:21;;;;;;;49.13;19.05;;;8.60;79.80;;;;;;4992793;28;94218;-75
2021/11/15 03:49:49;;;;;;;49.30;19.08;;;8.60;80.00;;;;;;4993614;28;95197;-74
2021/11/15 03:52:16;;;;;;;50.15;21.15;;;8.50;80.10;;;;;;4960748;28;92575;-74
2021/11/15 03:54:43;;;;;;;44.72;18.17;;;8.50;80.40;;;;;;4994641;28;93112;-74
2021/11/15 03:57:10;;;;;;;48.47;19.42;;;8.40;80.30;;;;;;4993661;28;94512;-74
2021/11/15 03:59:37;;;;;;;43.60;19.70;;;8.50;80.40;;;;;;4995001;28;92500;-74
2021/11/15 04:02:05;;;;;;;43.78;18.30;;;8.50;80.60;;;;;;4994445;28;94691;-74
2021/11/15 04:04:49;;;;;;;47.97;18.92;;;8.50;80.10;;;;;;4992997;28;94334;-74
2021/11/15 04:07:27;;;;;;;52.83;22.00;;;8.50;80.10;;;;;;4995063;28;92983;-74
2021/11/15 04:09:58;;;;;;;47.28;21.38;;;8.40;80.00;;;;;;4993659;28;92947;-75
2021/11/15 04:12:27;;;;;;;49.45;20.42;;;8.50;79.90;;;;;;4993545;28;93001;-75
2021/11/15 04:14:54;;;;;;;54.50;22.05;;;8.50;80.10;;;;;;4991823;28;95497;-75
2021/11/15 04:17:22;;;;;;;46.20;20.58;;;8.50;80.20;;;;;;4993315;28;95237;-74
2021/11/15 04:19:51;;;;;;;47.83;20.73;;;8.50;80.20;;;;;;4993225;28;92441;-74
2021/11/15 04:22:18;;;;;;;43.28;19.85;;;8.50;80.20;;;;;;4993248;28;92992;-74
2021/11/15 04:24:45;;;;;;;37.40;15.20;;;8.50;80.20;;;;;;4994228;28;93000;-74
2021/11/15 04:27:13;;;;;;;36.67;16.85;;;8.50;80.30;;;;;;4994337;28;97288;-74
2021/11/15 04:29:40;;;;;;;37.92;16.45;;;8.50;80.10;;;;;;4994561;28;92464;-74
2021/11/15 04:32:08;;;;;;;36.78;16.50;;;8.50;80.70;;;;;;4994488;28;91749;-74
2021/11/15 04:34:35;;;;;;;41.75;15.13;;;8.50;80.40;;;;;;4993925;28;106846;-74
2021/11/15 04:37:02;;;;;;;37.85;16.13;;;8.50;80.10;;;;;;4993270;28;93042;-74
2021/11/15 04:39:30;;;;;;;43.00;18.70;;;8.40;80.20;;;;;;4995109;28;94921;-74
2021/11/15 04:41:57;;;;;;;54.55;19.92;;;8.50;80.30;;;;;;4997458;28;92434;-74
2021/11/15 04:44:24;;;;;;;48.90;20.25;;;8.50;80.20;;;;;;4979708;28;94090;-74
2021/11/15 04:46:51;;;;;;;45.67;18.05;;;8.50;80.50;;;;;;4997280;28;92918;-74
2021/11/15 04:49:18;;;;;;;48.05;20.15;;;8.50;80.50;;;;;;4997674;28;92529;-74
2021/11/15 04:51:45;;;;;;;49.88;19.75;;;8.40;80.60;;;;;;4996952;28;103470;-74
2021/11/15 04:54:14;;;;;;;47.97;18.83;;;8.40;80.90;;;;;;4997239;28;93212;-74
2021/11/15 04:56:42;;;;;;;48.50;20.02;;;8.40;81.00;;;;;;4997673;28;92907;-74
2021/11/15 04:59:09;;;;;;;46.10;18.33;;;8.40;81.30;;;;;;4979459;28;92391;-74
2021/11/15 05:01:36;;;;;;;53.00;20.00;;;8.40;81.00;;;;;;4997656;28;92917;-74
2021/11/15 05:04:03;;;;;;;49.58;18.95;;;8.40;81.10;;;;;;4995868;28;95593;-74
2021/11/15 05:06:30;;;;;;;52.63;18.85;;;8.40;81.20;;;;;;4997032;28;95422;-74
2021/11/15 05:08:58;;;;;;;49.88;19.88;;;8.40;81.10;;;;;;4996971;28;93283;-74
2021/11/15 05:11:25;;;;;;;49.47;18.25;;;8.50;81.10;;;;;;4997250;28;92929;-74
2021/11/15 05:13:52;;;;;;;47.50;18.92;;;8.50;81.10;;;;;;4996919;28;93144;-74
2021/11/15 05:16:19;;;;;;;45.45;18.00;;;8.50;81.00;;;;;;4995290;28;107914;-75
2021/11/15 05:18:46;;;;;;;52.78;18.00;;;8.40;81.30;;;;;;4997462;28;93229;-74
2021/11/15 05:21:13;;;;;;;42.65;16.48;;;8.50;81.30;;;;;;4996056;28;92285;-75
2021/11/15 05:23:41;;;;;;;45.58;17.02;;;8.40;81.20;;;;;;4995787;28;93063;-70
2021/11/15 05:26:08;;;;;;;44.42;16.05;;;8.40;81.10;;;;;;4995339;28;96157;-70
2021/11/15 05:28:36;;;;;;;45.10;16.70;;;8.40;81.00;;;;;;4995816;28;95015;-70
2021/11/15 05:31:03;;;;;;;54.47;18.58;;;8.40;81.20;;;;;;4995235;28;92519;-74
2021/11/15 05:33:30;;;;;;;49.20;16.77;;;8.30;81.10;;;;;;4996992;28;93132;-74
2021/11/15 05:35:57;;;;;;;41.92;16.40;;;8.30;81.40;;;;;;4996793;28;92864;-74
2021/11/15 05:38:24;;;;;;;51.22;17.58;;;8.30;81.60;;;;;;4995819;28;92492;-75
2021/11/15 05:40:51;;;;;;;41.33;15.25;;;8.40;81.80;;;;;;4997015;28;92416;-74
2021/11/15 05:43:18;;;;;;;36.10;14.93;;;8.40;81.70;;;;;;4994776;28;112555;-74
2021/11/15 05:45:45;;;;;;;34.35;13.13;;;8.40;81.70;;;;;;4995156;28;93038;-74
2021/11/15 05:48:12;;;;;;;43.58;15.13;;;8.40;82.20;;;;;;4994552;28;92552;-74
2021/11/15 05:50:39;;;;;;;38.30;13.77;;;8.40;81.90;;;;;;4995459;28;92525;-74
2021/11/15 05:53:06;;;;;;;36.70;13.70;;;8.40;81.60;;;;;;4993814;28;95495;-75
2021/11/15 05:55:34;;;;;;;44.85;15.55;;;8.40;81.80;;;;;;4995192;28;95064;-74
2021/11/15 05:58:01;;;;;;;39.15;14.45;;;8.40;81.90;;;;;;4996408;28;92517;-74
2021/11/15 06:00:29;;;;;;;44.22;14.85;;;8.40;81.60;;;;;;4995341;28;92513;-74
2021/11/15 06:02:57;;;;;;;46.65;14.88;;;8.30;81.90;;;;;;4976376;28;106269;-74
2021/11/15 06:05:25;;;;;;;40.35;14.20;;;8.30;81.90;;;;;;4976238;28;92847;-74
2021/11/15 06:07:52;;;;;;;40.88;14.82;;;8.30;81.90;;;;;;4976477;28;92490;-74
2021/11/15 06:10:20;;;;;;;40.17;14.77;;;8.30;82.10;;;;;;4976749;28;91748;-74
2021/11/15 06:12:48;;;;;;;40.92;14.55;;;8.30;81.80;;;;;;4976171;28;93543;-74
2021/11/15 06:15:17;;;;;;;44.30;14.90;;;8.30;82.00;;;;;;4974646;28;94221;-75
2021/11/15 06:17:44;;;;;;;41.50;13.95;;;8.30;82.40;;;;;;4975137;28;94953;-74
2021/11/15 06:20:13;;;;;;;43.70;15.07;;;8.30;82.20;;;;;;4974900;28;92529;-75
2021/11/15 06:22:41;;;;;;;40.15;15.35;;;8.30;82.20;;;;;;4976025;28;95483;-75
2021/11/15 06:25:09;;;;;;;36.25;13.23;;;8.30;81.80;;;;;;4976053;28;92828;-74
2021/11/15 06:27:36;;;;;;;38.40;14.20;;;8.30;81.80;;;;;;4975895;28;100154;-75
2021/11/15 06:30:07;;;;;;;34.50;14.57;;;8.30;81.60;;;;;;4976057;28;92438;-74
2021/11/15 06:32:34;;;;;;;35.88;13.80;;;8.30;81.60;;;;;;4974969;28;93113;-74
2021/11/15 06:35:02;;;;;;;33.78;14.10;;;8.20;81.90;;;;;;4974678;28;94065;-74
2021/11/15 06:37:29;;;;;;;36.28;14.40;;;8.20;81.90;;;;;;4976232;28;92375;-75
2021/11/15 06:39:56;;;;;;;38.38;14.48;;;8.20;82.10;;;;;;4976275;28;92464;-75
2021/11/15 06:42:23;;;;;;;38.17;15.27;;;8.20;81.90;;;;;;4974243;28;95270;-75
2021/11/15 06:44:50;;;;;;;35.95;13.65;;;8.20;81.90;;;;;;4975711;28;95143;-75
2021/11/15 06:47:19;;;;;;;36.65;14.02;;;8.20;81.80;;;;;;4975268;28;92355;-74
2021/11/15 06:49:46;;;;;;;37.75;14.55;;;8.20;81.60;;;;;;4975843;28;92447;-74
2021/11/15 06:52:13;;;;;;;27.60;11.25;;;8.20;81.70;;;;;;4975523;28;92470;-74
2021/11/15 06:54:40;;;;;;;32.15;13.23;;;8.20;81.90;;;;;;4958030;28;94359;-74
2021/11/15 06:57:07;;;;;;;26.95;11.95;;;8.20;81.90;;;;;;4973986;28;92550;-74
2021/11/15 06:59:34;;;;;;;27.10;12.35;;;8.10;81.50;;;;;;4975735;28;91714;-74
2021/11/15 07:02:01;;;;;;;32.30;13.52;;;8.10;81.60;;;;;;4975459;28;92937;-74
2021/11/15 07:04:28;;;;;;;32.75;14.02;;;8.20;81.70;;;;;;4975326;28;92881;-74
2021/11/15 07:06:55;;;;;;;33.22;14.07;;;8.20;81.80;;;;;;4956833;28;95256;-74
2021/11/15 07:09:22;;;;;;;29.67;14.05;;;8.20;81.70;;;;;;4974351;28;92438;-74
2021/11/15 07:11:50;;;;;;;34.00;13.90;;;8.20;81.60;;;;;;4974015;28;92966;-74
2021/11/15 07:14:17;;;;;;;32.22;13.18;;;8.20;81.80;;;;;;4973557;28;105486;-74
2021/11/15 07:16:44;;;;;;;33.58;13.95;;;8.30;81.70;;;;;;4974161;28;92441;-74
2021/11/15 07:19:11;;;;;;;32.75;13.73;;;8.30;81.70;;;;;;4973913;28;92457;-74
2021/11/15 07:21:38;;;;;;;29.58;13.00;;;8.30;81.50;;;;;;4975226;28;93088;-74
2021/11/15 07:24:05;;;;;;;36.40;13.95;;;8.30;81.40;;;;;;4975616;28;92868;-74
2021/11/15 07:26:32;;;;;;;31.75;13.65;;;8.40;81.40;;;;;;4975353;28;92521;-74
2021/11/15 07:28:59;;;;;;;34.55;14.40;;;8.40;81.50;;;;;;4975555;28;92415;-74
2021/11/15 07:31:27;;;;;;;33.53;13.52;;;8.40;81.60;;;;;;4973784;28;95521;-74
2021/11/15 07:33:56;;;;;;;30.50;12.88;;;8.40;81.50;;;;;;4975222;28;95183;-74
2021/11/15 07:36:24;;;;;;;32.83;13.40;;;8.40;81.60;;;;;;4974922;28;92487;-74
2021/11/15 07:38:51;;;;;;;30.13;12.95;;;8.40;81.70;;;;;;4973736;28;92533;-75
2021/11/15 07:41:17;;;;;;;32.67;14.23;;;8.40;81.90;;;;;;4957423;28;94148;-74
2021/11/15 07:43:45;;;;;;;33.20;13.45;;;8.40;81.90;;;;;;4957638;28;93961;-74
2021/11/15 07:46:11;;;;;;;31.98;12.93;;;8.40;81.80;;;;;;4974987;28;92910;-74
2021/11/15 07:48:38;;;;;;;30.40;12.93;;;8.40;81.90;;;;;;4975728;28;91673;-74
2021/11/15 07:51:05;;;;;;;28.20;11.50;;;8.40;82.10;;;;;;4975130;28;93187;-74
2021/11/15 07:53:36;;;;;;;27.75;11.75;;;8.40;81.80;;;;;;4973348;28;92934;-74
2021/11/15 07:56:08;;;;;;;25.48;12.55;;;8.40;81.80;;;;;;4974128;28;94839;-74
2021/11/15 07:58:36;;;;;;;21.98;10.23;;;8.40;81.20;;;;;;4973359;28;92513;-74
2021/11/15 08:01:04;;;;;;;26.20;11.32;;;8.40;81.40;;;;;;4973782;28;92985;-74
2021/11/15 08:03:31;;;;;;;26.05;10.63;;;8.30;81.40;;;;;;4972865;28;108067;-74
2021/11/15 08:05:58;;;;;;;27.60;10.45;;;8.30;81.50;;;;;;4974886;28;92477;-74
2021/11/15 08:08:25;;;;;;;27.75;11.05;;;8.30;81.80;;;;;;4973429;28;92426;-74
2021/11/15 08:10:52;;;;;;;31.15;11.55;;;8.30;81.80;;;;;;4974786;28;93042;-74
2021/11/15 08:13:21;;;;;;;20.67;10.88;;;8.30;81.80;;;;;;4977182;28;92790;-74
2021/11/15 08:15:50;;;;;;;26.48;11.48;;;8.30;81.80;;;;;;4978439;28;92525;-74
2021/11/15 08:18:17;;;;;;;25.33;11.23;;;8.30;81.70;;;;;;4978190;28;92511;-74
2021/11/15 08:20:45;;;;;;;21.70;10.05;;;8.30;82.20;;;;;;4975366;28;96584;-74
2021/11/15 08:23:14;;;;;;;26.13;10.60;;;8.30;82.10;;;;;;4976572;28;96666;-74
2021/11/15 08:26:12;;;;;;;21.05;9.30;;;8.30;81.70;;;;;;4977883;28;92441;-74
2021/11/15 08:28:39;;;;;;;23.15;9.25;;;8.40;81.90;;;;;;4978464;28;92526;-74
2021/11/15 08:31:08;;;;;;;18.77;8.45;;;8.30;81.50;;;;;;4977047;28;95853;-74
2021/11/15 08:33:36;;;;;;;16.08;8.57;;;8.40;81.40;;;;;;4977979;28;92843;-74
2021/11/15 08:36:04;;;;;;;23.80;9.18;;;8.40;81.50;;;;;;4977496;28;92594;-74
2021/11/15 08:38:44;;;;;;;20.80;8.55;;;8.30;81.40;;;;;;4978559;28;91712;-74
2021/11/15 08:41:21;;;;;;;23.48;10.18;;;8.40;81.50;;;;;;4978305;28;96187;-74
2021/11/15 08:43:53;;;;;;;24.77;10.38;;;8.40;81.80;;;;;;4976976;28;93020;-74
2021/11/15 08:46:23;;;;;;;22.33;9.90;;;8.30;81.40;;;;;;4975686;28;95092;-74
2021/11/15 08:48:50;;;;;;;21.75;9.77;;;8.40;81.50;;;;;;4978562;28;92518;-74
2021/11/15 08:51:18;;;;;;;22.77;9.93;;;8.30;81.50;;;;;;4976817;28;94405;-74
2021/11/15 08:53:46;;;;;;;21.80;10.15;;;8.40;81.70;;;;;;4976580;28;101985;-74
2021/11/15 08:56:14;;;;;;;24.13;9.82;;;8.30;81.60;;;;;;4977919;28;92832;-74
2021/11/15 08:58:42;;;;;;;22.38;9.73;;;8.40;81.70;;;;;;4976647;28;92618;-74
2021/11/15 09:01:09;;;;;;;23.30;10.95;;;8.40;81.50;;;;;;4976862;28;93209;-74
2021/11/15 09:03:39;;;;;;;23.02;10.35;;;8.40;81.50;;;;;;4959987;28;93004;-74
2021/11/15 09:06:07;;;;;;;26.52;11.55;;;8.40;81.70;;;;;;4977452;28;92495;-75
2021/11/15 09:08:36;;;;;;;33.22;12.00;;;8.40;81.50;;;;;;4976963;28;92521;-74
2021/11/15 09:11:04;;;;;;;26.25;11.70;;;8.40;81.20;;;;;;4958766;28;98294;-74
2021/11/15 09:13:32;;;;;;;27.02;12.18;;;8.30;81.40;;;;;;4974927;28;109858;-74
2021/11/15 09:16:00;;;;;;;26.17;11.07;;;8.40;81.20;;;;;;4975918;28;92410;-74
2021/11/15 09:18:27;;;;;;;27.02;11.25;;;8.40;80.80;;;;;;4975999;28;92461;-74
2021/11/15 09:20:57;;;;;;;30.10;12.30;;;8.40;80.70;;;;;;4975692;28;93922;-74
2021/11/15 09:23:24;;;;;;;31.05;12.75;;;8.40;80.10;;;;;;4975013;28;92734;-74
2021/11/15 09:25:52;;;;;;;31.05;12.75;;;8.50;79.90;;;;;;4977036;28;92384;-74
2021/11/15 09:28:19;;;;;;;32.10;13.05;;;8.50;80.30;;;;;;4976192;28;92249;-74
2021/11/15 09:30:47;;;;;;;35.45;13.30;;;8.50;80.20;;;;;;4975375;28;94568;-74
2021/11/15 09:33:14;;;;;;;32.97;13.00;;;8.50;80.40;;;;;;4975530;28;92920;-74
2021/11/15 09:35:48;;;;;;;38.33;13.73;;;8.50;80.20;;;;;;4974149;28;94946;-74
2021/11/15 09:38:19;;;;;;;44.20;16.70;;;8.50;80.50;;;;;;4977206;28;92499;-74
2021/11/15 09:40:57;;;;;;;45.33;16.98;;;8.40;80.40;;;;;;4976863;28;93118;-74
2021/11/15 09:43:33;;;;;;;41.50;15.75;;;8.50;80.60;;;;;;4976680;28;94055;-74
2021/11/15 09:46:06;;;;;;;45.67;17.90;;;8.40;80.10;;;;;;4976519;28;92432;-70
2021/11/15 09:48:37;;;;;;;52.42;19.60;;;8.40;80.30;;;;;;4976802;28;92637;-70
2021/11/15 09:51:05;;;;;;;56.55;18.85;;;8.40;80.10;;;;;;4975533;28;93107;-70
2021/11/15 09:53:33;;;;;;;64.25;21.85;;;8.40;80.10;;;;;;4975345;28;95554;-70
2021/11/15 09:56:00;;;;;;;59.63;20.70;;;8.40;80.00;;;;;;4976020;28;100928;-70
2021/11/15 09:58:28;;;;;;;57.55;21.13;;;8.50;80.40;;;;;;4976737;28;92850;-70
2021/11/15 10:00:56;;;;;;;56.97;21.83;;;8.50;79.70;;;;;;4974037;28;95521;-70
2021/11/15 10:03:25;;;;;;;55.05;20.95;;;8.50;79.50;;;;;;4974886;28;96367;-70
2021/11/15 10:05:53;;;;;;;57.65;22.55;;;8.50;79.50;;;;;;4976152;28;92501;-70
2021/11/15 10:08:20;;;;;;;62.75;22.45;;;8.50;79.10;;;;;;4976295;28;92695;-70
2021/11/15 10:10:58;;;;;;;61.95;23.75;;;8.50;78.40;;;;;;4974894;28;93116;-70
2021/11/15 10:13:35;;;;;;;62.60;21.77;;;8.50;78.50;;;;;;4975997;28;97640;-70
2021/11/15 10:16:06;;;;;;;63.90;21.58;;;8.50;78.30;;;;;;4976380;28;92363;-70
2021/11/15 10:18:52;;;;;;;66.88;22.77;;;8.50;78.00;;;;;;4976785;28;91702;-70
2021/11/15 10:21:28;;;;;;;63.90;23.10;;;8.60;77.70;;;;;;4976207;28;92989;-70
2021/11/15 10:23:59;;;;;;;67.80;24.48;;;8.60;78.10;;;;;;4974567;28;94127;-70
2021/11/15 10:26:39;;;;;;;63.55;22.67;;;8.50;77.90;;;;;;4975446;28;95730;-70
2021/11/15 10:29:35;;;;;;;58.00;23.70;;;8.60;77.90;;;;;;4976264;28;92369;-70
2021/11/15 10:32:05;;;;;;;67.10;23.67;;;8.60;77.70;;;;;;4958676;28;94266;-70
2021/11/15 10:34:36;;;;;;;65.60;25.40;;;8.50;77.60;;;;;;4975003;28;92791;-70
2021/11/15 10:37:16;;;;;;;67.53;25.35;;;8.60;77.90;;;;;;4976214;28;92536;-70
2021/11/15 10:39:53;;;;;;;67.70;26.05;;;8.70;78.00;;;;;;4976037;28;92521;-70
2021/11/15 10:42:35;;;;;;;59.65;21.95;;;8.60;77.30;;;;;;4975523;28;94060;-70
2021/11/15 10:45:18;;;;;;;64.50;24.45;;;8.60;77.00;;;;;;4976478;28;92881;-70
2021/11/15 10:47:59;;;;;;;69.03;24.27;;;8.60;77.20;;;;;;4975355;28;92477;-70
2021/11/15 10:50:44;;;;;;;64.72;26.48;;;8.60;76.90;;;;;;4975982;28;92418;-70
2021/11/15 10:53:20;;;;;;;68.25;25.80;;;8.60;77.00;;;;;;4974509;28;95448;-70
2021/11/15 10:56:21;;;;;;;67.55;26.73;;;8.50;77.00;;;;;;4975611;28;98310;-70
2021/11/15 10:58:52;;;;;;;69.85;25.30;;;8.60;76.30;;;;;;4974239;28;92549;-70
2021/11/15 11:01:21;;;;;;;65.18;25.10;;;8.50;76.70;;;;;;4974436;28;92581;-70
2021/11/15 11:03:51;;;;;;;72.45;28.48;;;8.50;76.50;;;;;;4975497;28;93011;-70
2021/11/15 11:06:18;;;;;;;67.00;27.30;;;8.60;76.50;;;;;;4974223;28;97920;-70
2021/11/15 11:08:47;;;;;;;69.72;26.35;;;8.60;76.50;;;;;;4975319;28;92426;-70
2021/11/15 11:11:36;;;;;;;68.43;27.92;;;8.60;76.20;;;;;;4974717;28;91669;-70
2021/11/15 11:14:08;;;;;;;62.50;23.30;;;8.60;76.20;;;;;;4975414;28;93083;-70
2021/11/15 11:16:44;;;;;;;62.20;25.70;;;8.60;76.10;;;;;;4975529;28;93069;-70
2021/11/15 11:19:33;;;;;;;62.95;25.60;;;8.60;75.80;;;;;;4974568;28;94820;-70
2021/11/15 11:27:32;;;;;;;62.20;25.25;;;8.60;75.80;;;;;;4973893;28;94036;-70
2021/11/15 11:29:59;;;;;;;66.70;25.77;;;8.50;75.60;;;;;;4974987;28;92343;-70
2021/11/15 11:32:28;;;;;;;63.63;26.75;;;8.50;75.30;;;;;;4974162;28;92579;-70
2021/11/15 11:34:59;;;;;;;64.20;28.17;;;8.50;75.70;;;;;;4973421;28;93142;-70
2021/11/15 11:37:29;;;;;;;63.53;25.92;;;8.50;75.70;;;;;;4975815;28;92870;-70
2021/11/15 11:40:03;;;;;;;59.67;25.67;;;8.50;75.50;;;;;;4975024;28;92453;-74
2021/11/15 11:42:30;;;;;;;65.32;25.08;;;8.60;75.40;;;;;;4974438;28;93001;-74
2021/11/15 11:44:58;;;;;;;59.20;25.75;;;8.70;75.30;;;;;;4973512;28;95466;-74
2021/11/15 11:47:28;;;;;;;73.05;30.77;;;8.70;75.20;;;;;;4972945;28;94184;-74
2021/11/15 11:49:58;;;;;;;64.07;27.25;;;8.70;75.20;;;;;;4973861;28;92591;-74
2021/11/15 11:52:29;;;;;;;68.90;28.42;;;8.80;75.10;;;;;;4973768;28;92452;-69
2021/11/15 11:54:56;;;;;;;70.25;26.98;;;8.70;75.20;;;;;;4974660;28;95353;-70
2021/11/15 11:57:31;;;;;;;67.95;26.52;;;8.80;75.10;;;;;;4975092;28;92496;-69
2021/11/15 11:59:59;;;;;;;73.18;28.23;;;8.80;74.70;;;;;;4973441;28;92519;-69
2021/11/15 12:02:31;;;;;;;56.78;25.55;;;8.80;74.50;;;;;;4975397;28;91622;-69
2021/11/15 12:05:08;;;;;;;60.38;26.95;;;8.70;74.10;;;;;;4973640;28;93182;-69
2021/11/15 12:07:48;;;;;;;63.15;25.85;;;8.70;73.40;;;;;;4974867;28;93091;-69
2021/11/15 12:11:16;;;;;;;68.63;27.13;;;8.70;73.70;;;;;;4972380;28;94887;-69
2021/11/15 12:13:46;;;;;;;62.70;25.27;;;8.70;73.40;;;;;;4971823;28;92526;-69
2021/11/15 12:16:15;;;;;;;65.57;27.52;;;8.70;73.80;;;;;;4974607;28;93143;-70
2021/11/15 12:18:54;;;;;;;67.70;28.05;;;8.60;74.20;;;;;;4974758;28;92952;-70
2021/11/15 12:21:21;;;;;;;57.38;25.42;;;8.60;74.10;;;;;;4974916;28;92347;-69
2021/11/15 12:23:51;;;;;;;61.15;24.35;;;8.60;74.40;;;;;;4974671;28;93196;-69
2021/11/15 12:26:36;;;;;;;63.60;27.33;;;8.60;74.40;;;;;;4973372;28;95037;-69
2021/11/15 12:29:16;;;;;;;62.72;27.48;;;8.70;74.20;;;;;;4974833;28;92996;-69
2021/11/15 12:31:47;;;;;;;65.97;27.83;;;8.70;74.40;;;;;;4973638;28;93057;-69
2021/11/15 12:34:17;;;;;;;57.58;25.52;;;8.70;74.30;;;;;;4974814;28;92484;-69
2021/11/15 12:36:48;;;;;;;61.35;27.60;;;8.70;74.00;;;;;;4971865;28;96813;-69
2021/11/15 12:39:24;;;;;;;63.58;26.95;;;8.70;73.90;;;;;;4972781;28;95319;-70
2021/11/15 12:41:54;;;;;;;61.67;25.90;;;8.70;73.90;;;;;;4974310;28;92384;-69
2021/11/15 12:44:33;;;;;;;64.85;29.40;;;8.60;74.10;;;;;;4974721;28;92775;-69
2021/11/15 12:47:02;;;;;;;61.30;26.83;;;8.60;74.10;;;;;;4973885;28;93964;-69
2021/11/15 12:49:44;;;;;;;66.57;28.67;;;8.60;74.30;;;;;;4974424;28;92685;-69
2021/11/15 12:52:13;;;;;;;62.28;28.77;;;8.60;74.30;;;;;;4974492;28;92437;-69
2021/11/15 12:55:04;;;;;;;66.75;27.35;;;8.60;74.40;;;;;;4974541;28;91799;-69